Time;durP1;ratioP1;P1;durP2;ratioP2;P2;SDS_P1;SDS_P2;PMS_P1;PMS_P2;Temp;Humidity;BMP_temperature;BMP_pressure;BME280_temperature;BME280_humidity;BME280_pressure;Samples;Min_cycle;Max_cycle;Signal;HPM_P1;HPM_P2
2023/10/03 00:00:58;;;;;;;81.50;36.60;;;17.50;99.90;;;;;;5035376;28;20045;-77
2023/10/03 00:03:24;;;;;;;82.35;38.75;;;17.50;99.90;;;;;;5034201;28;20096;-77
2023/10/03 00:05:51;;;;;;;80.47;38.30;;;17.40;99.90;;;;;;5034007;28;20048;-78
2023/10/03 00:08:18;;;;;;;81.85;38.67;;;17.50;99.90;;;;;;5033917;28;20052;-78
2023/10/03 00:10:45;;;;;;;82.55;38.05;;;17.50;99.90;;;;;;5034892;28;20500;-78
2023/10/03 00:13:12;;;;;;;94.90;40.22;;;17.50;99.90;;;;;;5035431;28;20179;-77
2023/10/03 00:15:43;;;;;;;84.22;39.58;;;17.50;99.90;;;;;;5033731;28;20050;-77
2023/10/03 00:18:10;;;;;;;83.80;39.58;;;17.40;99.90;;;;;;5035119;28;20083;-78
2023/10/03 00:20:36;;;;;;;71.65;35.78;;;17.50;99.90;;;;;;5033678;28;20061;-78
2023/10/03 00:23:02;;;;;;;87.63;37.70;;;17.40;99.90;;;;;;5033531;28;20489;-78
2023/10/03 00:25:30;;;;;;;86.55;38.15;;;17.50;99.90;;;;;;5033728;28;20049;-78
2023/10/03 00:27:59;;;;;;;82.13;38.00;;;17.50;99.90;;;;;;5033608;28;20055;-78
2023/10/03 00:30:26;;;;;;;78.55;36.88;;;17.50;99.90;;;;;;5033475;28;20076;-78
2023/10/03 00:33:02;;;;;;;84.25;39.58;;;17.50;99.90;;;;;;5033725;28;20053;-78
2023/10/03 00:35:28;;;;;;;83.70;37.67;;;17.50;99.90;;;;;;5033482;28;20080;-78
2023/10/03 00:37:54;;;;;;;90.38;37.97;;;17.50;99.90;;;;;;5033366;28;20076;-78
2023/10/03 00:42:57;;;;;;;81.45;37.67;;;17.60;99.90;;;;;;5033155;28;20053;-78
2023/10/03 00:45:27;;;;;;;76.70;35.42;;;17.50;99.90;;;;;;5034661;28;20041;-77
2023/10/03 00:47:54;;;;;;;69.93;35.10;;;17.60;99.90;;;;;;5033204;28;20508;-78
2023/10/03 00:50:20;;;;;;;80.15;36.45;;;17.60;99.90;;;;;;5034047;28;20132;-79
2023/10/03 00:52:57;;;;;;;75.78;36.47;;;17.60;99.90;;;;;;5034395;28;20037;-78
2023/10/03 00:55:26;;;;;;;71.63;34.05;;;17.50;99.90;;;;;;5033161;28;20103;-78
2023/10/03 00:58:04;;;;;;;74.30;34.90;;;17.60;99.90;;;;;;5033219;28;20124;-78
2023/10/03 01:00:39;;;;;;;79.57;36.78;;;17.60;99.90;;;;;;5033752;28;20096;-78
2023/10/03 01:03:09;;;;;;;70.38;34.30;;;17.60;99.90;;;;;;5033067;28;20045;-79
2023/10/03 01:05:36;;;;;;;70.40;33.40;;;17.60;99.90;;;;;;5032760;28;20067;-77
2023/10/03 01:08:04;;;;;;;68.45;33.28;;;17.60;99.90;;;;;;5034031;28;20037;-78
2023/10/03 01:10:32;;;;;;;77.10;35.22;;;17.60;99.90;;;;;;5032794;28;20053;-77
2023/10/03 01:13:08;;;;;;;73.85;34.63;;;17.50;99.90;;;;;;5032745;28;20049;-77
2023/10/03 01:15:35;;;;;;;73.95;35.25;;;17.50;99.90;;;;;;5034033;28;20116;-77
2023/10/03 01:18:01;;;;;;;71.93;33.88;;;17.50;99.90;;;;;;5032840;28;20099;-77
2023/10/03 01:20:40;;;;;;;71.40;33.00;;;17.50;99.90;;;;;;5032664;28;20053;-78
2023/10/03 01:23:06;;;;;;;69.35;34.78;;;17.50;99.90;;;;;;5033854;28;20485;-78
2023/10/03 01:25:34;;;;;;;64.63;32.15;;;17.50;99.90;;;;;;5032784;28;20045;-78
2023/10/03 01:28:00;;;;;;;73.00;35.00;;;17.50;99.90;;;;;;5032297;28;20546;-78
2023/10/03 01:30:26;;;;;;;81.03;32.92;;;17.50;99.90;;;;;;5033603;28;20041;-78
2023/10/03 01:32:56;;;;;;;70.30;32.10;;;17.50;99.90;;;;;;5032411;28;20094;-78
2023/10/03 01:35:22;;;;;;;59.45;29.00;;;17.50;99.90;;;;;;5032434;28;20060;-77
2023/10/03 01:37:51;;;;;;;69.35;29.95;;;17.50;99.90;;;;;;5032713;28;20041;-78
2023/10/03 01:40:17;;;;;;;62.72;30.25;;;17.50;99.90;;;;;;5032043;28;20049;-78
2023/10/03 01:42:45;;;;;;;62.47;31.65;;;17.50;99.90;;;;;;5033645;28;20076;-78
2023/10/03 01:45:25;;;;;;;64.82;30.83;;;17.50;99.90;;;;;;5032414;28;20065;-78
2023/10/03 01:47:51;;;;;;;68.70;32.03;;;17.40;99.90;;;;;;5032384;28;20045;-78
2023/10/03 01:50:19;;;;;;;59.25;30.75;;;17.40;99.90;;;;;;5032213;28;20481;-78
2023/10/03 01:52:46;;;;;;;61.25;30.38;;;17.40;99.90;;;;;;5033431;28;20044;-78
2023/10/03 01:55:14;;;;;;;65.55;30.85;;;17.40;99.90;;;;;;5033497;28;20045;-77
2023/10/03 01:57:42;;;;;;;65.85;31.30;;;17.40;99.90;;;;;;5032130;28;20049;-78
2023/10/03 02:00:46;;;;;;;69.30;30.02;;;17.40;99.90;;;;;;5032522;28;20049;-79
2023/10/03 02:03:07;;;;;;;71.65;31.10;;;17.30;99.90;;;;;;5030253;28;20049;-78
2023/10/03 02:05:36;;;;;;;66.50;31.10;;;17.20;99.90;;;;;;5031999;28;20401;-77
2023/10/03 02:08:12;;;;;;;65.25;31.73;;;17.20;99.90;;;;;;5032152;28;20045;-78
2023/10/03 02:10:39;;;;;;;65.45;29.98;;;17.20;99.90;;;;;;5032099;28;20077;-77
2023/10/03 02:13:14;;;;;;;63.55;29.13;;;17.10;99.90;;;;;;5033819;28;20524;-78
2023/10/03 02:15:44;;;;;;;65.32;29.35;;;17.20;99.90;;;;;;5036102;28;20053;-78
2023/10/03 02:18:14;;;;;;;66.47;28.70;;;17.20;99.90;;;;;;5035827;28;20044;-78
2023/10/03 02:20:54;;;;;;;68.00;30.05;;;17.20;99.90;;;;;;5036156;28;20555;-77
2023/10/03 02:23:23;;;;;;;65.05;28.48;;;17.20;99.90;;;;;;5035888;28;20088;-77
2023/10/03 02:25:49;;;;;;;65.78;29.95;;;17.20;99.90;;;;;;5035907;28;20080;-77
2023/10/03 02:28:19;;;;;;;65.00;29.08;;;17.10;99.90;;;;;;5035766;28;20045;-78
2023/10/03 02:30:47;;;;;;;62.17;29.15;;;17.10;99.90;;;;;;5035604;28;20050;-77
2023/10/03 02:33:14;;;;;;;60.40;27.02;;;17.20;99.90;;;;;;5036929;28;20073;-77
2023/10/03 02:35:46;;;;;;;66.78;28.95;;;17.20;99.90;;;;;;5035810;28;20072;-78
2023/10/03 02:38:16;;;;;;;63.33;28.52;;;17.10;99.90;;;;;;5035575;28;20071;-77
2023/10/03 02:40:43;;;;;;;63.13;27.88;;;17.20;99.90;;;;;;5035604;28;20049;-77
2023/10/03 02:43:13;;;;;;;61.97;28.08;;;17.20;99.90;;;;;;5036603;28;20103;-78
2023/10/03 02:45:41;;;;;;;70.28;30.05;;;17.20;99.90;;;;;;5036843;28;20049;-78
2023/10/03 02:48:14;;;;;;;59.80;27.02;;;17.10;99.90;;;;;;5035589;28;20045;-77
2023/10/03 02:50:41;;;;;;;70.05;29.67;;;17.10;99.90;;;;;;5035483;28;20053;-78
2023/10/03 02:53:11;;;;;;;65.07;28.17;;;17.00;99.90;;;;;;5035214;28;20095;-77
2023/10/03 02:55:37;;;;;;;63.30;27.90;;;17.10;99.90;;;;;;5035277;28;20061;-77
2023/10/03 02:58:03;;;;;;;59.88;26.48;;;17.00;99.90;;;;;;5036374;28;20041;-78
2023/10/03 03:00:29;;;;;;;60.53;28.05;;;17.10;99.90;;;;;;5035191;28;20132;-78
2023/10/03 03:02:56;;;;;;;57.95;25.77;;;17.10;99.90;;;;;;5036494;28;20037;-79
2023/10/03 03:05:22;;;;;;;55.97;24.60;;;17.00;99.90;;;;;;5035166;28;20136;-79
2023/10/03 03:07:49;;;;;;;60.60;25.55;;;17.10;99.90;;;;;;5036396;28;20042;-78
2023/10/03 03:10:18;;;;;;;57.67;24.45;;;17.00;99.90;;;;;;5036274;28;20044;-78
2023/10/03 03:12:48;;;;;;;51.08;23.08;;;17.10;99.90;;;;;;5036314;28;20045;-78
2023/10/03 03:15:27;;;;;;;56.53;23.60;;;17.10;99.90;;;;;;5036271;28;20179;-78
2023/10/03 03:17:53;;;;;;;52.80;23.38;;;17.10;99.90;;;;;;5034980;28;20052;-78
2023/10/03 03:20:25;;;;;;;55.55;22.98;;;17.10;99.90;;;;;;5035046;28;20049;-78
2023/10/03 03:22:52;;;;;;;51.78;23.02;;;17.10;99.90;;;;;;5035866;28;20048;-78
2023/10/03 03:25:35;;;;;;;51.95;21.52;;;17.20;99.90;;;;;;5034478;28;20057;-78
2023/10/03 03:28:00;;;;;;;57.20;20.67;;;17.30;99.90;;;;;;5034735;28;20050;-78
2023/10/03 03:32:53;;;;;;;46.95;20.38;;;17.40;99.90;;;;;;5034883;28;20057;-78
2023/10/03 03:35:22;;;;;;;43.88;20.27;;;17.40;99.90;;;;;;5034495;28;20053;-78
2023/10/03 03:37:48;;;;;;;52.88;20.30;;;17.40;99.90;;;;;;5034664;28;20069;-78
2023/10/03 03:40:29;;;;;;;53.20;20.13;;;17.50;99.90;;;;;;5034406;28;20069;-79
2023/10/03 03:42:58;;;;;;;48.95;19.63;;;17.50;99.90;;;;;;5034806;28;20080;-77
2023/10/03 03:45:26;;;;;;;46.45;18.92;;;17.50;99.90;;;;;;5034463;28;20180;-77
2023/10/03 03:47:52;;;;;;;50.15;20.27;;;17.60;99.90;;;;;;5036052;28;20489;-77
2023/10/03 03:50:18;;;;;;;47.75;20.20;;;17.60;99.90;;;;;;5034195;28;20049;-77
2023/10/03 03:52:44;;;;;;;44.55;18.45;;;17.60;99.90;;;;;;5034466;28;20136;-77
2023/10/03 03:55:11;;;;;;;48.00;18.70;;;17.70;99.90;;;;;;5034499;28;20095;-78
2023/10/03 03:57:37;;;;;;;54.00;19.23;;;17.80;99.90;;;;;;5034078;28;20141;-78
2023/10/03 04:00:20;;;;;;;40.13;17.15;;;17.80;99.90;;;;;;5033982;28;20049;-77
2023/10/03 04:02:47;;;;;;;;;;;17.90;99.90;;;;;;5034473;28;20129;-77
2023/10/03 04:05:12;;;;;;;48.15;19.23;;;17.90;99.90;;;;;;5033915;28;20288;-78
2023/10/03 04:07:38;;;;;;;40.53;16.80;;;17.90;99.90;;;;;;5034191;28;20525;-80
2023/10/03 04:10:12;;;;;;;42.08;16.85;;;17.90;99.90;;;;;;5033865;28;20041;-78
2023/10/03 04:12:44;;;;;;;39.53;17.42;;;17.90;99.90;;;;;;5033725;28;20103;-77
2023/10/03 04:15:19;;;;;;;44.90;18.10;;;17.90;99.90;;;;;;5033796;28;20089;-78
2023/10/03 04:17:49;;;;;;;43.15;18.35;;;18.00;99.90;;;;;;5033627;28;20076;-77
2023/10/03 04:22:51;;;;;;;44.33;17.80;;;17.90;99.90;;;;;;5033715;28;20560;-78
2023/10/03 04:25:21;;;;;;;42.78;17.38;;;18.00;99.90;;;;;;5033500;28;20052;-79
2023/10/03 04:27:51;;;;;;;48.05;18.17;;;18.00;99.90;;;;;;5033565;28;20481;-79
2023/10/03 04:30:23;;;;;;;41.53;17.63;;;17.90;99.90;;;;;;5033412;28;20038;-78
2023/10/03 04:32:49;;;;;;;42.03;17.87;;;17.90;99.90;;;;;;5033835;28;20041;-78
2023/10/03 04:35:15;;;;;;;40.30;16.58;;;17.90;99.90;;;;;;5032135;28;20136;-77
2023/10/03 04:37:41;;;;;;;43.28;17.27;;;17.90;99.90;;;;;;5034971;28;20039;-78
2023/10/03 04:40:15;;;;;;;45.72;18.33;;;17.90;99.90;;;;;;5034386;28;20128;-77
2023/10/03 04:42:45;;;;;;;44.65;17.90;;;17.90;99.90;;;;;;5033308;28;20045;-77
2023/10/03 04:45:14;;;;;;;42.72;18.38;;;17.90;99.90;;;;;;5034593;28;20116;-77
2023/10/03 04:47:45;;;;;;;46.25;18.88;;;17.90;99.90;;;;;;5033379;28;20057;-78
2023/10/03 04:50:11;;;;;;;45.50;18.05;;;18.00;99.90;;;;;;5032981;28;20045;-78
2023/10/03 04:52:41;;;;;;;43.42;17.70;;;18.00;99.90;;;;;;5033012;28;20037;-78
2023/10/03 04:55:07;;;;;;;40.17;16.83;;;18.00;99.90;;;;;;5033269;28;20103;-78
2023/10/03 04:57:33;;;;;;;49.70;18.30;;;18.00;99.90;;;;;;5032983;28;20431;-78
2023/10/03 04:59:59;;;;;;;43.88;18.45;;;18.00;99.90;;;;;;5033315;28;20230;-78
2023/10/03 05:02:28;;;;;;;40.13;16.50;;;18.10;99.90;;;;;;5034256;28;20516;-78
2023/10/03 05:04:54;;;;;;;45.53;18.75;;;18.10;99.90;;;;;;5033007;28;20050;-77
2023/10/03 05:07:20;;;;;;;43.85;16.45;;;18.10;99.90;;;;;;5032819;28;20048;-78
2023/10/03 05:09:46;;;;;;;49.40;19.63;;;18.10;99.90;;;;;;5032832;28;20045;-78
2023/10/03 05:12:12;;;;;;;49.10;20.25;;;18.10;99.90;;;;;;5032815;28;20378;-79
2023/10/03 05:14:41;;;;;;;46.97;17.83;;;18.10;99.90;;;;;;5034114;28;20053;-78
2023/10/03 05:17:07;;;;;;;52.58;17.40;;;18.10;99.90;;;;;;5033932;28;20056;-77
2023/10/03 05:19:34;;;;;;;47.55;19.27;;;18.20;99.90;;;;;;5032595;28;20052;-78
2023/10/03 05:22:00;;;;;;;48.13;19.98;;;18.20;99.90;;;;;;5032871;28;20072;-78
2023/10/03 05:24:28;;;;;;;60.03;21.85;;;18.20;99.90;;;;;;5032577;28;20385;-78
2023/10/03 05:26:55;;;;;;;58.78;22.13;;;18.20;99.90;;;;;;5032641;28;20041;-78
2023/10/03 05:29:21;;;;;;;58.40;21.55;;;18.30;99.90;;;;;;5032595;28;20053;-78
2023/10/03 05:31:48;;;;;;;60.85;23.50;;;18.30;99.90;;;;;;5033797;28;20072;-78
2023/10/03 05:34:14;;;;;;;55.53;21.80;;;18.30;99.90;;;;;;5033567;28;20374;-78
2023/10/03 05:36:39;;;;;;;58.50;22.02;;;18.30;99.90;;;;;;5033713;28;20512;-78
2023/10/03 05:39:11;;;;;;;62.20;23.23;;;18.30;99.90;;;;;;5033403;28;20060;-77
2023/10/03 05:41:41;;;;;;;56.83;23.10;;;18.30;99.90;;;;;;5040679;28;20056;-78
2023/10/03 05:44:11;;;;;;;59.88;22.45;;;18.30;99.90;;;;;;5052168;28;20045;-77
2023/10/03 05:46:42;;;;;;;60.00;23.40;;;18.30;99.90;;;;;;5051150;28;20045;-78
2023/10/03 05:49:09;;;;;;;61.28;23.80;;;18.30;99.90;;;;;;5051857;28;20468;-77
2023/10/03 05:51:35;;;;;;;58.95;23.88;;;18.30;99.90;;;;;;5052696;28;20067;-79
2023/10/03 05:54:02;;;;;;;59.90;23.63;;;18.20;99.90;;;;;;5052295;28;20041;-78
2023/10/03 05:56:28;;;;;;;56.42;25.30;;;18.20;99.90;;;;;;5051840;28;20063;-78
2023/10/03 05:58:54;;;;;;;57.58;24.58;;;18.20;99.90;;;;;;5052184;28;20053;-78
2023/10/03 06:01:23;;;;;;;61.60;26.13;;;18.20;99.90;;;;;;5053305;28;20037;-78
2023/10/03 06:03:48;;;;;;;71.03;27.92;;;18.20;99.90;;;;;;5052074;28;20048;-79
2023/10/03 06:06:14;;;;;;;68.68;27.02;;;18.10;99.90;;;;;;5051796;28;20457;-78
2023/10/03 06:08:40;;;;;;;59.00;26.63;;;18.20;99.90;;;;;;5051824;28;20519;-79
2023/10/03 06:11:06;;;;;;;61.53;26.38;;;18.10;99.90;;;;;;5052034;28;20073;-78
2023/10/03 06:13:31;;;;;;;63.08;26.55;;;18.10;99.90;;;;;;5052009;28;20081;-78
2023/10/03 06:16:00;;;;;;;62.03;26.15;;;18.10;99.90;;;;;;5053129;28;20393;-78
2023/10/03 06:18:29;;;;;;;53.47;25.13;;;18.10;99.90;;;;;;5051801;28;20049;-78
2023/10/03 06:20:57;;;;;;;56.70;25.17;;;18.10;99.90;;;;;;5051556;28;20056;-78
2023/10/03 06:23:23;;;;;;;57.88;25.90;;;18.00;99.90;;;;;;5039388;28;20163;-78
2023/10/03 06:25:48;;;;;;;48.30;23.60;;;18.10;99.90;;;;;;5051380;28;20131;-78
2023/10/03 06:28:14;;;;;;;56.33;23.80;;;18.10;99.90;;;;;;5051424;28;20041;-77
2023/10/03 06:30:40;;;;;;;57.17;24.65;;;18.00;99.90;;;;;;5052757;28;20056;-77
2023/10/03 06:33:07;;;;;;;52.92;23.42;;;18.00;99.90;;;;;;5051664;28;20044;-76
2023/10/03 06:35:33;;;;;;;52.03;21.25;;;18.00;99.90;;;;;;5051426;28;20059;-76
2023/10/03 06:37:58;;;;;;;62.45;21.30;;;18.00;99.90;;;;;;5051260;28;20123;-76
2023/10/03 06:40:25;;;;;;;59.13;21.52;;;18.00;99.90;;;;;;5051126;28;20087;-76
2023/10/03 06:42:53;;;;;;;57.60;21.30;;;18.00;99.90;;;;;;5051054;28;20462;-77
2023/10/03 06:45:21;;;;;;;50.08;19.45;;;17.90;99.90;;;;;;5051527;28;20124;-77
2023/10/03 06:47:46;;;;;;;60.88;18.45;;;18.00;99.90;;;;;;5051175;28;20052;-77
2023/10/03 06:50:16;;;;;;;51.88;15.70;;;17.80;99.90;;;;;;5051168;28;20053;-77
2023/10/03 06:52:42;;;;;;;50.22;12.23;;;17.80;99.90;;;;;;5052624;28;20121;-76
2023/10/03 06:55:11;;;;;;;45.83;12.57;;;17.70;99.90;;;;;;5051398;28;20164;-77
2023/10/03 06:57:40;;;;;;;52.60;13.50;;;17.70;99.90;;;;;;5051289;28;20041;-76
2023/10/03 07:00:12;;;;;;;39.65;11.13;;;17.60;99.90;;;;;;5054172;28;20132;-77
2023/10/03 07:02:39;;;;;;;28.92;7.63;;;17.60;99.90;;;;;;5055028;28;20067;-77
2023/10/03 07:05:05;;;;;;;34.00;6.72;;;17.50;99.90;;;;;;5055928;28;20040;-77
2023/10/03 07:07:31;;;;;;;21.50;5.03;;;17.50;99.90;;;;;;5055819;28;20057;-77
2023/10/03 07:09:57;;;;;;;26.05;4.97;;;17.50;99.90;;;;;;5054548;28;20071;-77
2023/10/03 07:12:25;;;;;;;30.17;4.50;;;17.40;99.90;;;;;;5054605;28;20048;-77
2023/10/03 07:14:50;;;;;;;20.85;3.63;;;17.40;99.90;;;;;;5055640;28;20424;-77
2023/10/03 07:17:16;;;;;;;24.25;4.28;;;17.30;99.90;;;;;;5055665;28;20037;-77
2023/10/03 07:19:46;;;;;;;19.45;3.72;;;17.30;99.90;;;;;;5054245;28;20045;-76
2023/10/03 07:22:20;;;;;;;24.58;3.42;;;17.30;99.90;;;;;;5054793;28;20049;-76
2023/10/03 07:24:46;;;;;;;15.98;3.00;;;17.20;99.90;;;;;;5054245;28;20476;-76
2023/10/03 07:27:14;;;;;;;17.83;3.50;;;17.20;99.90;;;;;;5055604;28;20539;-75
2023/10/03 07:29:42;;;;;;;14.25;2.55;;;17.10;99.90;;;;;;5054164;28;20049;-76
2023/10/03 07:32:13;;;;;;;18.48;3.05;;;17.10;99.90;;;;;;5054150;28;20040;-76
2023/10/03 07:34:43;;;;;;;14.60;3.08;;;17.10;99.90;;;;;;5054178;28;20500;-77
2023/10/03 07:37:09;;;;;;;16.42;2.45;;;17.10;99.90;;;;;;5055558;28;20067;-77
2023/10/03 07:39:35;;;;;;;17.00;2.00;;;17.00;99.90;;;;;;5055148;28;20053;-76
2023/10/03 07:42:11;;;;;;;12.88;2.45;;;17.00;99.90;;;;;;5054371;28;20392;-77
2023/10/03 07:44:37;;;;;;;13.20;1.67;;;17.00;99.90;;;;;;5054197;28;20048;-76
2023/10/03 07:47:03;;;;;;;11.95;1.63;;;16.90;99.90;;;;;;5055160;28;20049;-76
2023/10/03 07:49:31;;;;;;;12.25;2.15;;;16.80;99.90;;;;;;5054046;28;20049;-77
2023/10/03 07:52:00;;;;;;;14.05;1.65;;;16.80;99.90;;;;;;5053631;28;20442;-76
2023/10/03 07:54:32;;;;;;;12.25;1.40;;;16.70;99.90;;;;;;5053836;28;20119;-76
2023/10/03 07:56:58;;;;;;;9.27;1.50;;;16.70;99.90;;;;;;5052635;28;20045;-76
2023/10/03 07:59:27;;;;;;;15.15;1.83;;;16.80;99.90;;;;;;5053804;28;20106;-77
2023/10/03 08:01:53;;;;;;;15.90;1.35;;;16.80;99.90;;;;;;5053770;28;20048;-77
2023/10/03 08:04:20;;;;;;;10.98;1.55;;;16.80;99.90;;;;;;5053964;28;20127;-76
2023/10/03 08:06:45;;;;;;;10.18;1.52;;;16.80;99.90;;;;;;5053534;28;20546;-78
2023/10/03 08:09:11;;;;;;;14.18;1.30;;;16.80;99.90;;;;;;5033694;28;20057;-77
2023/10/03 08:11:37;;;;;;;9.25;1.25;;;16.70;99.90;;;;;;5053041;28;20090;-76
2023/10/03 08:14:23;;;;;;;4.68;1.00;;;16.70;99.90;;;;;;5051726;28;20063;-76
2023/10/03 08:16:49;;;;;;;8.60;1.02;;;16.80;99.90;;;;;;5051552;28;20060;-76
2023/10/03 08:19:21;;;;;;;13.02;1.02;;;16.70;99.90;;;;;;5053252;28;20045;-76
2023/10/03 08:21:58;;;;;;;20.52;2.50;;;16.70;99.90;;;;;;5053270;28;20500;-77
2023/10/03 08:24:28;;;;;;;9.40;1.88;;;16.70;99.90;;;;;;5053480;28;20074;-76
2023/10/03 08:27:01;;;;;;;8.40;1.10;;;16.60;99.90;;;;;;5052488;28;20048;-75
2023/10/03 08:29:29;;;;;;;7.05;0.90;;;16.50;99.90;;;;;;5051225;28;20049;-78
2023/10/03 08:31:59;;;;;;;8.50;1.42;;;16.30;99.90;;;;;;5054218;28;20094;-76
2023/10/03 08:34:29;;;;;;;8.63;2.30;;;16.30;99.90;;;;;;5053287;28;20067;-75
2023/10/03 08:36:58;;;;;;;10.18;1.40;;;16.40;99.90;;;;;;5053082;28;20049;-76
2023/10/03 08:39:32;;;;;;;9.05;1.33;;;16.30;99.90;;;;;;5052833;28;20057;-78
2023/10/03 08:42:15;;;;;;;12.07;1.70;;;16.20;99.90;;;;;;5053228;28;20144;-75
2023/10/03 08:44:52;;;;;;;6.45;0.65;;;16.30;99.90;;;;;;5053050;28;20488;-76
2023/10/03 08:47:33;;;;;;;8.43;0.80;;;16.20;99.90;;;;;;5052711;28;20045;-77
2023/10/03 08:50:14;;;;;;;6.95;1.30;;;16.20;99.90;;;;;;5052929;28;20099;-77
2023/10/03 08:52:47;;;;;;;7.05;1.20;;;16.20;99.90;;;;;;5054070;28;20052;-76
2023/10/03 08:55:19;;;;;;;9.40;1.70;;;16.20;99.90;;;;;;5052813;28;20041;-76
2023/10/03 08:57:48;;;;;;;6.63;1.00;;;16.10;99.90;;;;;;5053034;28;20045;-76
2023/10/03 09:00:15;;;;;;;3.47;0.57;;;16.20;99.90;;;;;;5054290;28;20094;-77
2023/10/03 09:02:51;;;;;;;9.25;1.02;;;16.20;99.90;;;;;;5052751;28;20045;-76
2023/10/03 09:05:22;;;;;;;7.40;0.82;;;16.20;99.90;;;;;;5052672;28;20048;-78
2023/10/03 09:07:49;;;;;;;6.30;0.80;;;16.20;99.90;;;;;;5052636;28;20115;-77
2023/10/03 09:10:25;;;;;;;5.35;0.70;;;16.10;99.90;;;;;;5052382;28;20123;-76
2023/10/03 09:13:03;;;;;;;8.20;2.60;;;16.10;99.90;;;;;;5052518;28;20049;-76
2023/10/03 09:15:37;;;;;;;13.88;1.40;;;16.00;99.90;;;;;;5052507;28;20140;-78
2023/10/03 09:18:09;;;;;;;7.13;0.75;;;16.00;99.90;;;;;;5052622;28;20504;-78
2023/10/03 09:20:35;;;;;;;5.75;0.73;;;15.80;99.90;;;;;;5053534;28;20488;-77
2023/10/03 09:23:07;;;;;;;4.97;0.80;;;15.80;99.90;;;;;;5051982;28;20094;-77
2023/10/03 09:25:35;;;;;;;5.00;0.88;;;15.70;99.90;;;;;;5052600;28;20068;-77
2023/10/03 09:28:05;;;;;;;9.05;0.82;;;15.70;99.90;;;;;;5052525;28;20052;-76
2023/10/03 09:30:37;;;;;;;5.38;1.63;;;15.70;99.90;;;;;;5052071;28;20064;-78
2023/10/03 09:33:08;;;;;;;4.70;0.75;;;15.70;99.90;;;;;;5052150;28;20546;-77
2023/10/03 09:35:34;;;;;;;6.93;0.70;;;15.60;99.90;;;;;;5052327;28;20053;-77
2023/10/03 09:38:05;;;;;;;10.48;1.58;;;15.50;99.90;;;;;;5052113;28;20105;-77
2023/10/03 09:40:51;;;;;;;6.38;1.40;;;15.50;99.90;;;;;;5051956;28;20562;-77
2023/10/03 09:43:27;;;;;;;6.90;1.15;;;15.50;99.90;;;;;;5052108;28;20056;-76
2023/10/03 09:45:56;;;;;;;15.15;1.35;;;15.50;99.90;;;;;;5052239;28;20056;-76
2023/10/03 09:48:25;;;;;;;10.10;1.20;;;15.40;99.90;;;;;;5051874;28;20045;-76
2023/10/03 09:51:05;;;;;;;11.15;1.58;;;15.40;99.90;;;;;;5053377;28;20049;-78
2023/10/03 09:53:32;;;;;;;10.00;1.60;;;15.40;99.90;;;;;;5052193;28;20493;-76
2023/10/03 09:56:00;;;;;;;11.90;1.98;;;15.40;99.90;;;;;;5051863;28;20124;-77
2023/10/03 09:58:31;;;;;;;11.52;1.88;;;15.40;99.90;;;;;;5052207;28;20059;-78
2023/10/03 10:00:58;;;;;;;12.40;2.00;;;15.40;99.90;;;;;;5052106;28;20060;-77
2023/10/03 10:03:30;;;;;;;11.93;2.67;;;15.40;99.90;;;;;;5051851;28;20052;-78
2023/10/03 10:06:23;;;;;;;8.45;1.90;;;15.30;99.90;;;;;;5051912;28;20131;-78
2023/10/03 10:08:58;;;;;;;10.73;2.58;;;15.30;99.90;;;;;;5051849;28;20049;-76
2023/10/03 10:11:30;;;;;;;11.98;2.10;;;15.40;99.90;;;;;;5051829;28;20068;-77
2023/10/03 10:14:16;;;;;;;14.00;3.05;;;15.40;99.90;;;;;;5052101;28;20118;-76
2023/10/03 10:17:03;;;;;;;15.63;3.45;;;15.40;99.90;;;;;;5051764;28;20099;-76
2023/10/03 10:20:08;;;;;;;11.38;3.08;;;15.50;99.90;;;;;;5053160;28;20107;-77
2023/10/03 10:22:59;;;;;;;12.52;2.65;;;15.50;99.90;;;;;;5014774;28;20056;-75
2023/10/03 10:25:37;;;;;;;15.23;3.33;;;15.50;99.90;;;;;;5053009;28;20041;-77
2023/10/03 10:28:06;;;;;;;14.70;3.13;;;15.60;99.90;;;;;;5051932;28;20087;-76
2023/10/03 10:30:55;;;;;;;10.95;2.45;;;15.60;99.90;;;;;;5052688;28;20037;-78
2023/10/03 10:33:22;;;;;;;9.50;2.42;;;15.60;99.90;;;;;;5053021;28;20044;-77
2023/10/03 10:35:56;;;;;;;15.90;3.33;;;15.60;99.90;;;;;;5055668;28;20049;-76
2023/10/03 10:38:30;;;;;;;14.63;3.22;;;15.60;99.90;;;;;;5056418;28;20120;-76
2023/10/03 10:41:11;;;;;;;11.52;1.98;;;15.60;99.90;;;;;;5055643;28;20046;-76
2023/10/03 10:44:21;;;;;;;10.02;2.17;;;15.60;99.90;;;;;;5055275;28;20060;-76
2023/10/03 10:46:49;;;;;;;15.52;2.30;;;15.60;99.90;;;;;;5055262;28;20045;-76
2023/10/03 10:49:30;;;;;;;13.27;2.97;;;15.60;99.90;;;;;;5055237;28;20057;-75
2023/10/03 10:52:17;;;;;;;13.60;2.90;;;15.50;99.90;;;;;;5055112;28;20499;-78
2023/10/03 10:54:44;;;;;;;7.80;2.17;;;15.60;99.90;;;;;;5055392;28;20053;-77
2023/10/03 10:57:11;;;;;;;13.38;2.78;;;15.60;99.90;;;;;;5055030;28;20493;-77
2023/10/03 10:59:40;;;;;;;12.02;2.78;;;15.60;99.90;;;;;;5056454;28;20056;-76
2023/10/03 11:02:28;;;;;;;13.00;2.13;;;15.60;99.90;;;;;;5056406;28;20037;-76
2023/10/03 11:04:59;;;;;;;8.55;2.03;;;15.70;99.90;;;;;;5055005;28;20049;-77
2023/10/03 11:07:26;;;;;;;8.60;1.98;;;15.70;99.90;;;;;;5054811;28;20116;-76
2023/10/03 11:09:54;;;;;;;11.52;2.13;;;15.70;99.90;;;;;;5054767;28;20098;-77
2023/10/03 11:12:27;;;;;;;14.30;2.65;;;15.70;99.90;;;;;;5055319;28;20045;-76
2023/10/03 11:14:55;;;;;;;10.95;1.88;;;15.80;99.90;;;;;;5055913;28;20052;-78
2023/10/03 11:17:22;;;;;;;8.38;2.38;;;15.70;99.90;;;;;;5055810;28;20041;-76
2023/10/03 11:19:52;;;;;;;13.90;2.55;;;15.70;99.90;;;;;;5055391;28;20049;-76
2023/10/03 11:22:18;;;;;;;15.52;2.10;;;15.70;99.90;;;;;;5054824;28;20144;-78
2023/10/03 11:24:45;;;;;;;14.68;2.55;;;15.70;99.90;;;;;;5054509;28;20470;-77
2023/10/03 11:27:23;;;;;;;13.20;2.53;;;15.70;99.90;;;;;;5054552;28;20400;-76
2023/10/03 11:29:52;;;;;;;9.60;2.35;;;15.70;99.90;;;;;;5054306;28;20049;-76
2023/10/03 11:32:30;;;;;;;12.13;2.45;;;15.70;99.90;;;;;;5054558;28;20052;-76
2023/10/03 11:34:57;;;;;;;15.10;2.17;;;15.70;99.90;;;;;;5054662;28;20108;-77
2023/10/03 11:37:39;;;;;;;11.18;2.10;;;15.70;99.90;;;;;;5054245;28;20045;-76
2023/10/03 11:40:23;;;;;;;12.00;2.70;;;15.70;99.90;;;;;;5054139;28;20459;-78
2023/10/03 11:43:08;;;;;;;9.18;2.20;;;15.70;99.90;;;;;;5053805;28;20049;-77
2023/10/03 11:45:34;;;;;;;9.35;1.77;;;15.70;99.90;;;;;;5053758;28;20056;-76
2023/10/03 11:48:17;;;;;;;11.73;2.92;;;15.70;99.90;;;;;;5055481;28;20052;-76
2023/10/03 11:50:45;;;;;;;14.38;2.85;;;15.80;99.90;;;;;;5053952;28;20510;-76
2023/10/03 11:53:12;;;;;;;11.75;2.47;;;15.80;99.90;;;;;;5054202;28;20067;-77
2023/10/03 11:55:40;;;;;;;13.05;2.00;;;15.80;99.90;;;;;;5054185;28;20543;-77
2023/10/03 11:58:06;;;;;;;14.10;2.33;;;15.70;99.90;;;;;;5054158;28;20052;-77
2023/10/03 12:00:33;;;;;;;11.43;2.42;;;15.70;99.90;;;;;;5055107;28;20048;-77
2023/10/03 12:02:59;;;;;;;11.75;2.30;;;15.70;99.90;;;;;;5054231;28;20049;-77
2023/10/03 12:05:27;;;;;;;15.23;2.70;;;15.70;99.90;;;;;;5053661;28;20048;-76
2023/10/03 12:07:56;;;;;;;12.18;2.67;;;15.70;99.90;;;;;;5053706;28;20049;-77
2023/10/03 12:10:30;;;;;;;14.98;2.50;;;15.70;99.90;;;;;;5053561;28;20132;-78
2023/10/03 12:12:56;;;;;;;7.57;2.20;;;15.70;99.90;;;;;;5053677;28;20048;-77
2023/10/03 12:15:23;;;;;;;9.85;2.30;;;15.80;99.90;;;;;;5055015;28;20040;-77
2023/10/03 12:17:49;;;;;;;11.40;2.50;;;15.70;99.90;;;;;;5053397;28;20045;-77
2023/10/03 12:20:17;;;;;;;11.05;2.80;;;15.70;99.90;;;;;;5053814;28;20049;-76
2023/10/03 12:22:50;;;;;;;9.38;2.33;;;15.80;99.90;;;;;;5054953;28;20087;-77
2023/10/03 12:25:18;;;;;;;10.63;1.83;;;15.80;99.90;;;;;;5053634;28;20064;-77
2023/10/03 12:27:45;;;;;;;11.73;2.13;;;15.80;99.90;;;;;;5053621;28;20044;-77
2023/10/03 12:30:12;;;;;;;15.38;2.90;;;15.90;99.90;;;;;;5054433;28;20051;-76
2023/10/03 12:32:40;;;;;;;12.38;2.92;;;16.00;99.90;;;;;;5053221;28;20492;-78
2023/10/03 12:35:08;;;;;;;18.50;3.03;;;16.00;99.90;;;;;;5054355;28;20479;-77
2023/10/03 12:37:37;;;;;;;12.48;2.42;;;16.20;99.90;;;;;;5053344;28;20060;-76
2023/10/03 12:40:08;;;;;;;15.95;2.88;;;16.10;99.90;;;;;;5054254;28;20096;-76
2023/10/03 12:42:35;;;;;;;15.88;2.78;;;16.10;99.90;;;;;;5052986;28;20064;-77
2023/10/03 12:45:03;;;;;;;16.65;2.85;;;16.20;99.90;;;;;;5052901;28;20053;-76
2023/10/03 12:47:29;;;;;;;10.32;2.33;;;16.20;99.90;;;;;;5053206;28;20057;-75
2023/10/03 12:49:57;;;;;;;9.95;2.10;;;16.30;99.90;;;;;;5052932;28;20045;-76
2023/10/03 12:52:22;;;;;;;14.32;2.47;;;16.30;99.90;;;;;;5052867;28;20048;-76
2023/10/03 12:54:48;;;;;;;16.02;4.15;;;16.30;99.90;;;;;;5052858;28;20040;-76